Time;durP1;ratioP1;P1;durP2;ratioP2;P2;SDS_P1;SDS_P2;PMS_P1;PMS_P2;Temp;Humidity;BMP_temperature;BMP_pressure;BME280_temperature;BME280_humidity;BME280_pressure;Samples;Min_cycle;Max_cycle;Signal;HPM_P1;HPM_P2
2022/12/28 00:00:24;;;;;;;1.50;1.40;;;7.70;61.20;;;6.31;64.39;101778.47;12252720;19;20078;-82
2022/12/28 00:04:26;;;;;;;1.40;1.30;;;7.70;61.30;;;6.34;64.26;101786.19;12257375;19;20007;-81
2022/12/28 00:08:27;;;;;;;3.13;1.60;;;7.80;61.30;;;6.35;64.20;101785.31;12256151;19;20006;-81
2022/12/28 00:12:31;;;;;;;2.55;1.30;;;7.80;61.30;;;6.36;64.37;101788.75;12256166;19;20021;-82
2022/12/28 00:16:39;;;;;;;3.40;1.30;;;7.90;61.30;;;6.42;64.49;101791.22;12254890;19;20481;-82
2022/12/28 00:20:41;;;;;;;1.67;1.40;;;7.80;61.20;;;6.37;64.29;101767.97;12251058;19;20044;-82
2022/12/28 00:24:43;;;;;;;2.00;1.75;;;7.80;61.20;;;6.44;64.27;101773.88;12255266;19;20418;-82
2022/12/28 00:28:46;;;;;;;1.75;1.33;;;7.90;61.10;;;6.46;64.39;101771.25;12253507;19;20453;-82
2022/12/28 00:32:49;;;;;;;1.60;1.50;;;7.90;61.10;;;6.51;64.22;101762.50;12254237;19;20026;-82
2022/12/28 00:36:52;;;;;;;5.38;1.45;;;8.10;61.20;;;6.48;64.57;101747.00;12255818;19;20011;-82
2022/12/28 00:40:54;;;;;;;2.55;1.30;;;7.90;61.00;;;6.47;64.49;101742.69;12251555;19;20019;-82
2022/12/28 00:44:55;;;;;;;1.48;1.20;;;8.00;61.10;;;6.60;64.29;101751.91;12253114;19;20010;-82
2022/12/28 00:48:57;;;;;;;5.38;1.70;;;8.00;61.00;;;6.50;64.34;101732.22;12253281;19;20014;-82
2022/12/28 00:53:01;;;;;;;2.85;1.50;;;8.00;60.80;;;6.63;64.39;101769.16;12254513;19;20105;-81
2022/12/28 00:57:02;;;;;;;3.47;1.83;;;8.20;61.10;;;6.68;64.39;101766.47;12253494;19;20044;-82
2022/12/28 01:01:13;;;;;;;1.58;1.48;;;8.10;61.00;;;6.70;64.39;101746.50;12251409;19;20338;-82
2022/12/28 01:05:16;;;;;;;2.58;1.55;;;8.10;60.80;;;6.76;64.37;101742.03;12252222;19;20047;-82
2022/12/28 01:09:17;;;;;;;3.45;1.60;;;8.10;61.10;;;6.78;64.29;101748.03;12250593;19;20023;-82
2022/12/28 01:13:19;;;;;;;2.10;1.58;;;8.20;60.80;;;6.63;64.24;101720.69;12251515;19;20018;-82
2022/12/28 01:17:21;;;;;;;4.07;1.75;;;8.10;60.70;;;6.70;64.24;101720.53;12252345;19;20018;-81
2022/12/28 01:21:28;;;;;;;3.30;1.50;;;8.20;60.50;;;6.54;64.24;101686.31;12246722;19;20011;-82
2022/12/28 01:25:32;;;;;;;1.25;1.10;;;8.20;60.60;;;6.70;64.29;101711.03;12249348;19;20413;-81
2022/12/28 01:29:34;;;;;;;1.90;1.67;;;8.30;60.70;;;6.84;64.31;101718.50;12248846;19;20014;-81
2022/12/28 01:33:37;;;;;;;1.80;1.58;;;8.30;60.60;;;6.69;64.32;101683.34;12251623;19;20349;-82
2022/12/28 01:37:39;;;;;;;1.90;1.48;;;8.30;60.60;;;6.98;64.43;101716.41;12251718;19;20150;-81
2022/12/28 01:41:41;;;;;;;1.45;1.30;;;8.30;60.50;;;6.96;64.52;101697.41;12247168;19;20029;-82
2022/12/28 01:45:51;;;;;;;2.90;1.42;;;8.40;60.40;;;6.91;64.17;101683.69;12252100;19;20327;-81
2022/12/28 01:50:04;;;;;;;1.95;1.60;;;8.40;60.40;;;6.93;64.16;101676.72;12248454;19;20014;-82
2022/12/28 01:54:07;;;;;;;1.60;1.25;;;8.40;60.50;;;6.89;64.36;101661.28;12249524;19;20115;-82
2022/12/28 01:58:19;;;;;;;2.67;1.77;;;8.40;60.00;;;7.01;64.23;101676.53;12248719;19;20480;-82
2022/12/28 02:02:22;;;;;;;3.22;1.52;;;8.40;60.10;;;6.88;64.27;101647.41;12246219;19;20473;-82
2022/12/28 02:06:27;;;;;;;;;;;8.40;60.00;;;6.94;64.30;101647.28;12243336;19;20014;-82
2022/12/28 02:10:32;;;;;;;1.40;1.15;;;8.40;59.90;;;6.96;64.14;101635.09;12245626;19;20542;-82
2022/12/28 02:14:34;;;;;;;2.22;1.35;;;8.40;60.00;;;7.02;64.06;101637.56;12245503;19;20469;-82
2022/12/28 02:18:38;;;;;;;1.85;1.52;;;8.40;60.00;;;6.97;64.25;101623.84;12243345;19;20033;-82
2022/12/28 02:22:58;;;;;;;2.47;1.50;;;8.40;59.90;;;7.03;64.35;101628.84;12244466;19;20345;-82
2022/12/28 02:27:16;;;;;;;2.35;1.70;;;8.40;59.90;;;6.90;64.08;101604.09;12249884;19;20014;-82
2022/12/28 02:31:42;;;;;;;2.70;1.80;;;8.40;59.80;;;6.97;64.01;101599.63;12244414;19;20445;-82
2022/12/28 02:36:07;;;;;;;3.53;2.05;;;8.40;59.90;;;6.95;64.26;101593.59;12247266;19;20025;-82
2022/12/28 02:40:30;;;;;;;1.98;1.55;;;8.40;59.80;;;6.93;64.05;101592.78;12246279;19;20082;-82
2022/12/28 02:53:48;;;;;;;2.60;1.50;;;8.40;59.90;;;6.95;64.01;101571.09;12245379;19;20465;-82
2022/12/28 02:58:19;;;;;;;3.38;1.80;;;8.40;59.90;;;6.98;64.15;101555.41;12247719;19;20007;-82
2022/12/28 03:02:47;;;;;;;1.90;1.55;;;8.40;59.70;;;6.97;64.07;101540.75;12241291;19;20018;-82
2022/12/28 03:12:11;;;;;;;2.95;1.38;;;8.30;59.70;;;6.80;64.01;101516.97;12244450;19;20035;-81
2022/12/28 03:16:27;;;;;;;2.45;1.55;;;8.30;59.80;;;6.93;64.10;101520.94;12247073;19;20363;-82
2022/12/28 03:33:52;;;;;;;3.30;1.60;;;8.20;59.70;;;6.78;63.92;101474.63;12245003;19;20468;-82
2022/12/28 03:38:01;;;;;;;1.77;1.67;;;8.20;59.80;;;6.81;64.17;101469.38;12245184;19;20022;-82
2022/12/28 03:46:54;;;;;;;1.40;1.30;;;8.20;59.80;;;6.88;64.00;101468.28;12244824;19;20416;-82
2022/12/28 03:50:56;;;;;;;1.42;1.33;;;8.20;59.70;;;6.81;64.21;101453.78;12241714;19;20007;-82
2022/12/28 03:54:58;;;;;;;1.55;1.45;;;8.20;59.80;;;6.82;63.93;101451.13;12244457;19;20021;-81
2022/12/28 03:59:00;;;;;;;2.65;1.75;;;8.20;59.80;;;6.83;64.08;101446.78;12244039;19;20017;-82
2022/12/28 04:03:11;;;;;;;3.47;1.75;;;8.10;59.70;;;6.81;63.96;101433.88;12243894;19;20014;-81
2022/12/28 04:07:13;;;;;;;3.38;1.65;;;8.10;59.60;;;6.76;63.86;101419.31;12244977;19;20358;-81
2022/12/28 04:11:15;;;;;;;2.58;1.83;;;8.10;59.70;;;6.83;63.87;101431.22;12242096;19;20010;-81
2022/12/28 04:15:20;;;;;;;2.05;1.25;;;8.10;59.70;;;6.74;64.08;101395.97;12242670;19;20041;-81
2022/12/28 04:19:22;;;;;;;2.88;1.52;;;8.30;59.80;;;6.80;64.07;101402.75;12241555;19;20045;-82
2022/12/28 04:23:25;;;;;;;1.83;1.52;;;8.10;59.60;;;6.79;64.09;101391.53;12253995;19;20077;-82
2022/12/28 04:27:40;;;;;;;1.73;1.42;;;8.30;59.80;;;6.74;64.04;101390.78;12253916;19;20027;-81
2022/12/28 04:31:52;;;;;;;2.13;1.30;;;8.10;59.60;;;6.74;63.88;101369.19;12248156;19;20432;-81
2022/12/28 04:36:04;;;;;;;1.70;1.40;;;8.10;59.70;;;6.77;63.84;101372.53;12251760;19;20014;-81
2022/12/28 04:40:07;;;;;;;1.20;1.02;;;8.10;59.70;;;6.66;63.81;101351.22;12252417;19;20019;-81
2022/12/28 04:44:09;;;;;;;2.28;1.30;;;8.10;60.00;;;6.75;63.96;101369.16;12256303;19;20027;-82
2022/12/28 04:48:11;;;;;;;1.27;1.10;;;8.10;59.70;;;6.76;64.01;101360.47;12254082;19;20038;-81
2022/12/28 04:52:13;;;;;;;1.20;1.10;;;8.10;59.70;;;6.72;63.97;101343.25;12255959;19;20021;-82
2022/12/28 04:56:17;;;;;;;2.13;1.20;;;8.10;59.70;;;6.67;64.01;101328.72;12255708;19;20002;-81
2022/12/28 05:00:18;;;;;;;1.70;1.20;;;8.10;59.70;;;6.47;63.87;101304.22;12251813;19;20045;-82
2022/12/28 05:04:20;;;;;;;1.40;0.95;;;8.10;59.70;;;6.76;63.83;101346.63;12255355;19;20014;-82
2022/12/28 05:08:22;;;;;;;0.90;0.90;;;8.30;59.70;;;6.69;63.96;101329.53;12251561;19;20010;-81
2022/12/28 05:12:25;;;;;;;1.38;1.17;;;8.10;59.60;;;6.75;63.81;101330.22;12253654;19;20015;-81
2022/12/28 05:16:27;;;;;;;2.10;1.40;;;8.10;59.70;;;6.80;63.98;101346.47;12251454;19;20067;-81
2022/12/28 05:20:29;;;;;;;1.67;1.30;;;8.10;59.40;;;6.78;63.75;101350.06;12248880;19;20024;-81
2022/12/28 05:24:31;;;;;;;4.13;1.25;;;8.20;59.50;;;6.79;63.94;101344.78;12251224;19;20030;-81
2022/12/28 05:28:33;;;;;;;1.55;1.17;;;8.10;59.40;;;6.80;63.79;101343.88;12250624;19;20025;-81
2022/12/28 05:32:35;;;;;;;2.17;1.10;;;8.10;59.50;;;6.79;63.68;101325.78;12246643;19;20025;-81
2022/12/28 05:36:38;;;;;;;1.33;1.23;;;8.10;59.50;;;6.78;64.00;101321.50;12250756;19;20010;-82
2022/12/28 05:40:40;;;;;;;0.85;0.85;;;8.10;59.50;;;6.68;63.72;101299.31;12247030;19;20010;-82
2022/12/28 05:44:42;;;;;;;1.27;1.02;;;8.10;59.50;;;6.78;63.79;101305.94;12250065;19;20631;-81
2022/12/28 05:48:44;;;;;;;1.10;1.00;;;8.10;59.50;;;6.66;63.71;101273.38;12250112;19;20002;-82
2022/12/28 05:52:46;;;;;;;1.00;0.98;;;8.10;59.60;;;6.77;63.66;101301.59;12249544;19;20021;-81
2022/12/28 05:56:50;;;;;;;1.13;1.02;;;8.10;59.60;;;6.76;63.66;101298.16;12251622;19;20010;-81
2022/12/28 06:00:52;;;;;;;1.90;1.20;;;8.10;59.60;;;6.79;63.88;101290.28;12247827;19;20353;-81
2022/12/28 06:04:54;;;;;;;1.75;1.10;;;8.10;59.60;;;6.74;64.02;101276.59;12249935;19;20114;-81
2022/12/28 06:08:56;;;;;;;1.75;1.00;;;8.10;59.60;;;6.81;63.72;101274.69;12249597;19;20010;-81
2022/12/28 06:12:58;;;;;;;1.35;1.23;;;8.10;59.60;;;6.84;63.71;101267.63;12250934;19;20595;-82
2022/12/28 06:17:00;;;;;;;1.80;1.30;;;8.10;59.60;;;6.85;63.79;101264.13;12250030;19;20007;-81
2022/12/28 06:21:11;;;;;;;1.90;1.20;;;8.20;59.20;;;6.83;63.90;101254.69;12248567;19;20025;-81
2022/12/28 06:25:13;;;;;;;2.20;1.30;;;8.20;59.50;;;6.90;63.73;101258.81;12251906;19;20016;-83
2022/12/28 06:29:14;;;;;;;4.95;1.42;;;8.20;59.60;;;6.94;64.00;101262.16;12249012;19;20043;-82
2022/12/28 06:33:16;;;;;;;3.38;2.00;;;8.30;59.60;;;6.65;63.98;101206.81;12250295;19;20002;-81
2022/12/28 06:37:17;;;;;;;3.90;1.23;;;8.20;59.50;;;6.93;63.78;101239.69;12247505;19;20025;-81
2022/12/28 06:41:21;;;;;;;1.27;1.05;;;8.30;59.50;;;6.98;63.85;101238.63;12244457;19;20039;-82
2022/12/28 06:45:23;;;;;;;0.95;0.80;;;8.30;59.60;;;7.02;63.93;101231.59;12246053;19;20014;-82
2022/12/28 06:49:25;;;;;;;1.38;1.15;;;8.40;59.60;;;7.06;63.75;101230.59;12245776;19;20029;-82
2022/12/28 06:53:33;;;;;;;3.42;1.30;;;8.40;59.50;;;7.03;63.87;101218.56;12246697;19;20055;-81
2022/12/28 06:57:35;;;;;;;1.60;1.15;;;8.40;59.50;;;6.95;63.76;101205.00;12247607;19;20011;-82
2022/12/28 07:01:39;;;;;;;3.30;1.27;;;8.40;59.60;;;7.10;63.80;101224.41;12245301;19;20373;-81
2022/12/28 07:05:41;;;;;;;2.67;1.37;;;8.50;59.60;;;7.14;63.95;101231.22;12246753;19;20018;-82
2022/12/28 07:09:43;;;;;;;2.00;1.20;;;8.50;59.80;;;6.99;63.92;101184.97;12245464;19;20015;-82
2022/12/28 07:13:45;;;;;;;2.20;1.27;;;8.50;59.90;;;7.19;63.95;101210.28;12245004;19;20082;-82
2022/12/28 07:17:47;;;;;;;3.13;1.48;;;8.60;60.20;;;7.18;63.87;101195.59;12246732;19;20368;-80
2022/12/28 07:21:49;;;;;;;2.22;1.20;;;8.60;60.40;;;7.12;63.89;101188.00;12242702;19;20472;-81
2022/12/28 07:25:51;;;;;;;2.22;1.63;;;8.70;60.70;;;7.18;63.96;101187.78;12245340;19;20003;-81
2022/12/28 07:29:53;;;;;;;1.92;1.08;;;8.60;60.90;;;7.21;63.80;101185.97;12242055;19;20029;-81
2022/12/28 07:33:58;;;;;;;1.52;1.20;;;8.60;61.10;;;7.09;63.74;101169.03;12244839;19;20349;-81
2022/12/28 07:37:59;;;;;;;2.85;1.40;;;8.50;61.10;;;7.17;63.92;101160.97;12244560;19;20014;-81
2022/12/28 07:42:05;;;;;;;1.35;1.15;;;8.50;61.30;;;7.14;63.90;101144.66;12243558;19;20014;-83
2022/12/28 07:46:15;;;;;;;1.20;1.10;;;8.60;61.50;;;7.17;63.97;101154.94;12246523;19;20018;-81
2022/12/28 07:50:17;;;;;;;1.38;1.13;;;8.60;61.50;;;7.14;63.85;101142.91;12245675;19;20006;-80
2022/12/28 07:54:19;;;;;;;2.72;1.20;;;8.50;61.50;;;7.07;63.97;101118.91;12251901;19;20022;-81
2022/12/28 07:58:21;;;;;;;1.73;1.02;;;8.60;61.70;;;7.29;63.94;101150.19;12258878;19;20082;-82
2022/12/28 08:02:23;;;;;;;3.25;1.20;;;8.60;61.80;;;7.27;64.02;101146.78;12256809;19;20021;-82
2022/12/28 08:06:28;;;;;;;1.33;1.17;;;8.60;61.80;;;7.26;64.06;101128.63;12259552;19;20039;-82
2022/12/28 08:10:30;;;;;;;1.98;1.60;;;8.60;61.90;;;7.33;64.14;101135.31;12254704;19;20014;-81
2022/12/28 08:14:32;;;;;;;1.75;1.17;;;8.60;62.00;;;7.34;64.20;101131.81;12256525;19;20022;-81
2022/12/28 08:18:33;;;;;;;3.55;1.30;;;8.70;62.00;;;7.40;63.97;101134.22;12255287;19;20086;-81
2022/12/28 08:22:35;;;;;;;1.67;1.50;;;8.70;62.00;;;7.42;63.94;101136.75;12251883;19;20019;-82
2022/12/28 08:26:39;;;;;;;2.55;1.38;;;8.70;62.10;;;7.38;63.93;101124.78;12255251;19;20058;-82
2022/12/28 08:30:40;;;;;;;1.58;1.30;;;8.70;62.20;;;7.43;64.00;101134.09;12251332;19;20084;-81
2022/12/28 08:34:42;;;;;;;1.23;1.13;;;8.70;62.10;;;7.46;64.13;101131.41;12255991;19;20010;-81
2022/12/28 08:38:46;;;;;;;0.93;0.90;;;8.70;62.30;;;7.45;63.94;101114.13;12253391;19;20045;-81
2022/12/28 08:42:47;;;;;;;1.20;1.10;;;8.80;62.30;;;7.42;64.31;101092.56;12249237;19;20015;-83
2022/12/28 08:46:49;;;;;;;2.10;1.33;;;8.80;62.40;;;7.44;64.18;101081.22;12251710;19;20014;-82
2022/12/28 08:50:52;;;;;;;2.70;1.13;;;8.80;62.50;;;7.54;64.02;101092.97;12250952;19;20018;-82
2022/12/28 08:54:53;;;;;;;2.25;1.45;;;8.90;62.70;;;7.49;64.17;101075.88;12254088;19;20017;-82
2022/12/28 08:58:56;;;;;;;1.52;1.30;;;8.90;62.90;;;7.58;64.31;101082.47;12254034;19;20027;-81
2022/12/28 09:02:58;;;;;;;1.55;1.20;;;8.90;62.90;;;7.66;64.34;101101.22;12250963;19;20006;-81
2022/12/28 09:07:00;;;;;;;1.55;1.05;;;8.90;62.80;;;7.68;64.28;101082.06;12255373;19;20014;-82
2022/12/28 09:11:06;;;;;;;1.17;1.08;;;9.00;62.80;;;7.64;64.33;101066.66;12253731;19;20521;-82
2022/12/28 09:15:09;;;;;;;1.65;1.38;;;9.00;62.70;;;7.72;64.43;101069.81;12260732;19;20623;-82
2022/12/28 09:19:14;;;;;;;1.67;1.30;;;9.10;62.60;;;7.82;64.21;101076.34;12258229;19;20437;-82
2022/12/28 09:23:15;;;;;;;1.00;1.00;;;9.10;62.30;;;7.80;64.41;101065.16;12252544;19;20039;-81
2022/12/28 09:27:17;;;;;;;1.33;1.23;;;9.20;62.50;;;7.98;64.39;101080.06;12258536;19;20006;-81
2022/12/28 09:31:21;;;;;;;1.38;1.10;;;9.20;62.30;;;8.03;64.18;101066.03;12246501;19;20015;-81
2022/12/28 09:35:23;;;;;;;1.70;1.60;;;9.30;62.20;;;8.09;64.36;101068.41;12252071;19;20026;-80
2022/12/28 09:39:25;;;;;;;1.45;1.13;;;9.40;62.00;;;8.07;64.41;101041.59;12253523;19;20016;-82
2022/12/28 09:43:27;;;;;;;1.95;1.40;;;9.60;62.20;;;8.14;64.33;101036.09;12256746;19;20077;-81
2022/12/28 09:47:54;;;;;;;1.50;1.23;;;9.50;62.70;;;8.24;64.15;101039.19;12248747;19;20022;-81
2022/12/28 09:52:22;;;;;;;1.15;1.10;;;9.60;61.90;;;8.24;64.17;101031.38;12248446;19;20010;-82
2022/12/28 09:56:40;;;;;;;2.13;1.10;;;9.60;61.90;;;8.29;64.23;101025.97;12247866;19;20017;-81
2022/12/28 10:00:50;;;;;;;1.70;1.17;;;9.70;62.70;;;8.33;64.27;101012.78;12248890;19;20086;-81
2022/12/28 10:04:52;;;;;;;1.75;1.10;;;9.70;61.90;;;8.37;64.40;101014.34;12253643;19;20007;-81
2022/12/28 10:08:58;;;;;;;5.55;1.35;;;9.80;62.00;;;8.45;64.31;101005.38;12252237;19;20057;-81
2022/12/28 10:13:23;;;;;;;1.70;1.20;;;9.80;62.00;;;8.49;64.26;101009.56;12253395;19;20013;-81
2022/12/28 10:17:29;;;;;;;1.20;1.10;;;9.90;62.10;;;8.49;64.31;100988.75;12249312;19;20014;-81
2022/12/28 10:21:33;;;;;;;1.50;1.40;;;9.90;62.70;;;8.55;64.19;100994.53;12246792;19;20019;-81
2022/12/28 10:25:35;;;;;;;3.40;1.30;;;9.90;61.90;;;8.54;64.17;100979.84;12253175;19;20018;-81
2022/12/28 10:29:39;;;;;;;1.55;1.10;;;10.00;61.60;;;8.65;64.43;100979.38;12247915;19;20085;-81
2022/12/28 10:33:50;;;;;;;1.33;1.23;;;10.00;61.70;;;8.65;64.25;100974.16;12249250;19;20022;-81
2022/12/28 10:38:03;;;;;;;1.60;1.40;;;10.00;62.50;;;8.70;64.29;100964.41;12251703;19;20022;-81
2022/12/28 10:42:17;;;;;;;1.83;1.40;;;10.10;61.80;;;8.57;64.16;100926.81;12245535;19;20014;-82
2022/12/28 10:46:22;;;;;;;1.85;1.30;;;10.10;61.70;;;8.83;64.47;100962.09;12249340;19;20014;-82
2022/12/28 10:50:53;;;;;;;1.73;1.52;;;10.20;61.80;;;8.92;64.21;100966.91;12245948;19;20052;-82
2022/12/28 10:54:55;;;;;;;1.13;1.10;;;10.20;61.60;;;8.94;64.43;100964.22;12248353;19;20064;-82
2022/12/28 10:59:09;;;;;;;2.58;1.40;;;10.30;62.00;;;8.99;64.18;100970.06;12248975;19;20006;-82
2022/12/28 11:03:18;;;;;;;2.90;1.58;;;10.30;62.00;;;8.97;64.34;100951.09;12244407;19;20047;-82
2022/12/28 11:07:27;;;;;;;1.38;1.17;;;10.30;62.20;;;9.06;64.29;100948.91;12246090;19;20022;-82
2022/12/28 11:11:29;;;;;;;1.88;1.33;;;10.40;62.30;;;9.07;64.14;100944.53;12244516;19;20014;-82
2022/12/28 11:15:32;;;;;;;1.60;1.50;;;10.40;62.30;;;9.10;64.28;100954.84;12247919;19;20469;-82
2022/12/28 11:19:34;;;;;;;1.70;1.30;;;10.40;62.90;;;9.11;64.26;100924.41;12247182;19;20022;-82
2022/12/28 11:23:38;;;;;;;2.00;1.38;;;10.40;62.50;;;9.02;64.32;100912.66;12245540;19;20034;-82
2022/12/28 11:27:40;;;;;;;1.52;1.42;;;10.40;62.60;;;9.12;64.27;100923.47;12245449;19;20027;-82
2022/12/28 11:31:50;;;;;;;1.52;1.30;;;10.50;62.60;;;9.17;64.13;100919.75;12249461;19;20034;-82
2022/12/28 11:35:54;;;;;;;1.35;1.25;;;10.50;62.40;;;9.22;64.10;100915.16;12257341;19;20372;-82
2022/12/28 11:39:57;;;;;;;2.30;1.80;;;10.50;62.20;;;9.08;64.18;100891.53;12254591;19;20357;-82
2022/12/28 11:44:03;;;;;;;1.38;1.27;;;10.60;62.30;;;9.35;64.13;100922.44;12257894;19;20497;-82
2022/12/28 11:48:37;;;;;;;2.22;1.42;;;10.60;62.20;;;9.31;64.27;100904.31;12255109;19;20088;-82
2022/12/28 11:52:46;;;;;;;1.45;1.35;;;10.60;62.20;;;9.34;64.35;100895.50;12259444;19;20011;-82
2022/12/28 11:56:57;;;;;;;1.63;1.38;;;10.70;62.20;;;9.42;64.16;100900.34;12255578;19;20010;-82
2022/12/28 12:01:01;;;;;;;1.80;1.15;;;10.70;62.20;;;9.20;64.22;100857.06;12253121;19;20021;-82
2022/12/28 12:05:38;;;;;;;1.90;1.40;;;10.80;62.10;;;9.52;64.14;100899.00;12255857;19;20015;-82
2022/12/28 12:09:45;;;;;;;1.17;1.10;;;10.80;61.90;;;9.56;64.35;100890.13;12253310;19;20350;-82
2022/12/28 12:13:49;;;;;;;2.22;2.03;;;10.80;62.00;;;9.56;64.18;100873.63;12256231;19;20014;-82
2022/12/28 12:18:07;;;;;;;1.77;1.63;;;10.90;61.90;;;9.61;64.10;100875.09;12256875;19;20030;-82
2022/12/28 12:22:16;;;;;;;1.30;1.20;;;10.90;61.70;;;9.63;64.29;100868.03;12250842;19;20017;-82
2022/12/28 12:26:36;;;;;;;1.40;1.25;;;11.00;61.80;;;9.65;64.18;100867.97;12255467;19;20015;-82
2022/12/28 12:30:40;;;;;;;1.80;1.40;;;11.00;61.70;;;9.76;64.33;100865.69;12252950;19;20014;-82
2022/12/28 12:34:52;;;;;;;1.90;1.75;;;11.00;61.90;;;9.73;64.24;100856.25;12253569;19;20032;-83
2022/12/28 12:39:42;;;;;;;3.78;1.75;;;11.10;61.80;;;9.74;64.34;100837.06;12253587;19;20018;-82
2022/12/28 12:44:22;;;;;;;3.38;1.58;;;11.10;62.30;;;9.89;64.02;100853.72;12249931;19;20018;-82
2022/12/28 12:48:30;;;;;;;1.95;1.45;;;11.20;61.70;;;9.95;64.18;100855.16;12258096;19;20424;-82
2022/12/28 12:52:52;;;;;;;3.85;1.75;;;11.20;61.50;;;9.94;64.13;100848.28;12259710;19;20032;-82
2022/12/28 12:57:15;;;;;;;1.60;1.50;;;11.30;61.60;;;9.91;64.01;100843.19;12257274;19;20372;-82
2022/12/28 13:01:35;;;;;;;1.50;1.40;;;11.50;61.80;;;10.07;64.10;100854.56;12252095;19;20031;-81
2022/12/28 13:05:46;;;;;;;1.55;1.40;;;11.40;61.60;;;10.02;64.16;100834.81;12258924;19;20010;-82
2022/12/28 13:09:50;;;;;;;1.40;1.30;;;11.40;61.70;;;10.09;64.21;100836.19;12255253;19;20048;-82
2022/12/28 13:13:54;;;;;;;2.00;1.38;;;11.40;61.60;;;10.25;64.14;100846.69;12255653;19;20358;-82
2022/12/28 13:18:17;;;;;;;2.08;1.77;;;11.50;61.80;;;10.30;64.13;100850.78;12258562;19;20546;-82
2022/12/28 13:22:31;;;;;;;1.80;1.52;;;11.60;61.40;;;10.37;64.02;100846.09;12255984;19;20392;-82
2022/12/28 13:26:33;;;;;;;1.95;1.55;;;11.60;61.30;;;10.39;64.09;100839.84;12260290;19;20043;-81
2022/12/28 13:30:37;;;;;;;1.40;1.20;;;11.70;61.30;;;10.32;64.14;100817.63;12254624;19;20006;-82
2022/12/28 13:34:48;;;;;;;2.92;1.67;;;11.80;61.50;;;10.35;63.95;100830.50;12254367;19;20011;-82
2022/12/28 13:39:12;;;;;;;1.42;1.33;;;11.80;61.30;;;10.39;63.95;100829.41;12251823;19;20022;-82
2022/12/28 13:43:51;;;;;;;1.90;1.38;;;11.80;61.20;;;10.53;63.88;100841.75;12252483;19;20035;-82
2022/12/28 13:47:55;;;;;;;1.02;1.02;;;11.80;60.90;;;10.50;64.15;100839.28;12251717;19;20015;-82
2022/12/28 13:51:57;;;;;;;1.65;1.48;;;11.80;60.90;;;10.56;63.98;100836.38;12251187;19;20022;-82
2022/12/28 13:56:06;;;;;;;3.53;1.30;;;11.90;60.90;;;10.37;63.96;100807.78;12252419;19;20013;-82
2022/12/28 14:00:09;;;;;;;2.45;1.40;;;11.80;60.80;;;10.51;63.83;100827.09;12250621;19;20013;-82
2022/12/28 14:04:15;;;;;;;1.33;1.23;;;11.80;60.70;;;10.50;63.97;100835.84;12251286;19;20002;-82
2022/12/28 14:08:17;;;;;;;1.48;1.38;;;11.80;60.60;;;10.46;63.88;100816.88;12254509;19;20030;-81
2022/12/28 14:12:20;;;;;;;2.42;2.00;;;11.80;60.60;;;10.47;63.91;100820.34;12251643;19;20010;-81
2022/12/28 14:16:23;;;;;;;1.25;1.15;;;11.80;60.70;;;10.53;63.91;100827.81;12250429;19;20483;-81
2022/12/28 14:20:25;;;;;;;1.20;1.08;;;11.80;60.90;;;10.13;63.75;100762.06;12252447;19;20014;-81
2022/12/28 14:24:27;;;;;;;4.00;1.15;;;11.90;60.90;;;10.58;63.94;100839.72;12253238;19;20023;-81
2022/12/28 14:28:53;;;;;;;1.65;1.30;;;11.80;60.80;;;10.50;63.76;100830.59;12257711;19;20088;-81
2022/12/28 14:32:56;;;;;;;1.63;1.35;;;11.80;60.60;;;10.55;63.85;100839.88;12256036;19;20022;-82
2022/12/28 14:36:58;;;;;;;1.58;1.08;;;11.80;60.70;;;10.58;63.82;100849.31;12255552;19;20038;-82
2022/12/28 14:41:01;;;;;;;1.13;1.02;;;11.80;60.90;;;10.55;63.82;100837.28;12252488;19;20018;-82
2022/12/28 14:45:44;;;;;;;1.67;1.58;;;11.80;60.80;;;10.40;63.72;100820.66;12254794;19;20082;-81
2022/12/28 14:49:46;;;;;;;2.05;1.38;;;11.80;60.70;;;10.51;63.70;100835.75;12249321;19;20007;-82
2022/12/28 14:54:22;;;;;;;1.50;1.40;;;11.80;60.80;;;10.51;63.72;100846.22;12253476;19;20086;-81
2022/12/28 14:58:30;;;;;;;1.52;1.42;;;11.80;60.80;;;10.42;63.44;100833.63;12254013;19;20016;-82
2022/12/28 15:02:37;;;;;;;1.90;1.75;;;11.80;60.60;;;10.52;63.74;100860.94;12251246;19;20019;-82
2022/12/28 15:06:39;;;;;;;1.45;1.35;;;11.70;60.60;;;10.51;63.80;100842.75;12253981;19;20014;-82
2022/12/28 15:10:48;;;;;;;1.80;1.60;;;11.70;60.90;;;10.45;63.54;100851.75;12253715;19;20014;-80
2022/12/28 15:14:50;;;;;;;1.63;1.20;;;11.70;60.70;;;10.52;63.44;100852.25;12255335;19;20010;-81
2022/12/28 15:18:52;;;;;;;1.23;1.10;;;11.70;60.90;;;10.50;63.66;100838.44;12255546;19;20014;-81
2022/12/28 15:22:53;;;;;;;1.73;1.30;;;11.70;60.90;;;10.50;63.69;100834.06;12254194;19;20011;-82
2022/12/28 15:26:55;;;;;;;1.35;1.13;;;11.70;61.50;;;10.48;63.56;100822.03;12253833;19;20029;-81
2022/12/28 15:30:57;;;;;;;1.73;1.50;;;11.70;60.90;;;10.54;63.64;100837.38;12251498;19;20078;-81
2022/12/28 15:34:59;;;;;;;1.17;1.10;;;11.70;60.90;;;10.50;63.52;100823.59;12253188;19;20031;-81
2022/12/28 15:39:01;;;;;;;2.17;1.48;;;11.70;60.90;;;10.51;63.46;100825.31;12250977;19;20019;-81
2022/12/28 15:43:03;;;;;;;1.88;1.10;;;11.70;60.80;;;10.57;63.73;100832.81;12251350;19;20029;-81
2022/12/28 15:47:04;;;;;;;1.52;1.17;;;11.70;60.80;;;10.61;63.96;100836.09;12253672;19;20027;-81
2022/12/28 15:51:06;;;;;;;1.27;1.17;;;11.90;61.00;;;10.48;63.49;100806.38;12248415;19;20026;-81
2022/12/28 15:55:08;;;;;;;2.42;1.40;;;11.80;60.70;;;10.60;63.81;100835.25;12252235;19;20071;-81
2022/12/28 15:59:13;;;;;;;3.17;1.60;;;11.80;61.50;;;10.58;63.62;100824.03;12251384;19;20365;-81
2022/12/28 16:03:14;;;;;;;2.30;1.80;;;11.80;60.30;;;10.66;63.60;100833.25;12248426;19;20015;-80
2022/12/28 16:07:17;;;;;;;2.67;2.08;;;11.80;60.60;;;10.61;63.71;100825.66;12249997;19;20287;-81
2022/12/28 16:11:20;;;;;;;2.55;1.55;;;11.90;60.60;;;10.70;63.53;100825.16;12247379;19;20045;-80
2022/12/28 16:15:22;;;;;;;1.50;1.40;;;11.90;60.20;;;10.70;63.60;100822.56;12256438;19;20030;-81
2022/12/28 16:19:24;;;;;;;1.42;1.33;;;11.90;60.00;;;10.65;63.45;100808.91;12263361;19;20007;-80
2022/12/28 16:23:28;;;;;;;2.53;1.10;;;11.90;60.20;;;10.69;63.32;100813.03;12260419;19;20027;-81
2022/12/28 16:27:29;;;;;;;1.25;1.15;;;11.90;60.00;;;10.69;63.39;100820.03;12265141;19;20022;-81
2022/12/28 16:31:34;;;;;;;1.50;1.40;;;11.90;60.20;;;10.74;63.33;100825.84;12261699;19;20007;-80
2022/12/28 16:35:36;;;;;;;2.45;1.45;;;11.90;59.90;;;10.75;63.41;100814.47;12265706;19;20355;-81
2022/12/28 16:39:37;;;;;;;1.38;1.27;;;11.90;59.90;;;10.70;63.40;100819.94;12261391;19;20011;-81
2022/12/28 16:43:39;;;;;;;2.35;1.40;;;11.90;60.10;;;10.68;63.31;100803.50;12264251;19;20018;-81
2022/12/28 16:47:40;;;;;;;1.30;1.20;;;12.00;60.10;;;10.75;63.39;100825.78;12261437;19;20359;-82
2022/12/28 16:51:45;;;;;;;1.30;1.20;;;11.90;59.90;;;10.75;63.34;100809.25;12262429;19;20024;-82
2022/12/28 16:55:46;;;;;;;2.13;1.60;;;11.90;60.00;;;10.73;63.49;100811.94;12264126;19;20014;-81
2022/12/28 16:59:48;;;;;;;1.50;1.30;;;11.90;59.90;;;10.63;63.35;100789.84;12261838;19;20414;-82
2022/12/28 17:03:51;;;;;;;1.70;1.35;;;12.00;60.00;;;10.74;63.33;100802.34;12261791;19;20003;-82
2022/12/28 17:07:52;;;;;;;1.23;1.13;;;12.00;59.90;;;10.78;63.20;100803.88;12261266;19;20519;-82
2022/12/28 17:11:54;;;;;;;0.85;0.85;;;12.10;60.00;;;10.77;63.45;100813.44;12260364;19;20026;-81
2022/12/28 17:15:59;;;;;;;1.40;1.30;;;12.00;59.90;;;10.79;63.24;100816.81;12264220;19;20015;-82
2022/12/28 17:20:01;;;;;;;1.60;1.45;;;12.00;59.80;;;10.73;63.41;100798.88;12257799;19;20021;-82
2022/12/28 17:24:03;;;;;;;1.23;1.10;;;12.00;59.80;;;10.80;63.26;100817.66;12261426;19;20367;-81
2022/12/28 17:28:05;;;;;;;1.40;1.30;;;12.00;59.90;;;10.75;63.34;100817.94;12261680;19;20015;-82
2022/12/28 17:32:07;;;;;;;1.23;1.13;;;12.00;59.90;;;10.75;63.42;100822.31;12261694;19;20027;-83
2022/12/28 17:36:08;;;;;;;1.63;1.48;;;12.00;60.20;;;10.80;63.38;100807.22;12263525;19;20006;-82
2022/12/28 17:40:10;;;;;;;1.63;1.10;;;12.00;60.10;;;10.38;63.12;100748.56;12260561;19;20054;-82